Time;durP1;ratioP1;P1;durP2;ratioP2;P2;SDS_P1;SDS_P2;PMS_P1;PMS_P2;Temp;Humidity;BMP_temperature;BMP_pressure;BME280_temperature;BME280_humidity;BME280_pressure;Samples;Min_cycle;Max_cycle;Signal;HPM_P1;HPM_P2
2024/02/16 00:00:50;;;;;;;7.17;2.60;;;;;;;8.30;100.00;100928.56;5009703;28;20467;-79
2024/02/16 00:03:25;;;;;;;8.80;3.20;;;;;;;9.86;100.00;101171.25;4995480;28;20446;-79
2024/02/16 00:05:58;;;;;;;8.07;2.90;;;;;;;8.96;100.00;101064.31;4998306;28;20437;-77
2024/02/16 00:08:38;;;;;;;;;;;;;;;;;;;;;
2024/02/16 00:11:17;;;;;;;7.90;2.80;;;;;;;8.80;100.00;100987.75;5000546;28;20470;-79
2024/02/16 00:13:55;;;;;;;9.07;2.37;;;;;;;9.92;100.00;101170.53;5016031;28;20437;-79
2024/02/16 00:16:26;;;;;;;7.77;3.17;;;;;;;9.01;100.00;101016.44;5011539;28;20485;-79
2024/02/16 00:19:01;;;;;;;9.77;2.50;;;;;;;10.86;100.00;101342.28;5010801;28;20475;-79
2024/02/16 00:21:41;;;;;;;;;;;;;;;;;;;;;
2024/02/16 00:24:15;;;;;;;6.33;2.60;;;;;;;9.92;100.00;101181.25;5011655;28;20456;-78
2024/02/16 00:26:53;;;;;;;8.80;2.80;;;;;;;8.10;100.00;100865.94;5012772;28;20485;-80
2024/02/16 00:29:31;;;;;;;11.30;3.60;;;;;;;10.10;100.00;101163.94;5007927;28;20466;-80
2024/02/16 00:32:10;;;;;;;7.50;2.77;;;;;;;8.62;100.00;100948.00;5008546;28;20432;-81
2024/02/16 00:34:41;;;;;;;7.93;2.40;;;;;;;9.21;100.00;101043.47;4999160;28;20556;-80
2024/02/16 00:37:16;;;;;;;9.80;2.40;;;;;;;7.92;100.00;100819.03;5013082;28;20442;-78
2024/02/16 00:39:54;;;;;;;;;;;;;;;;;;;;;
2024/02/16 00:42:27;;;;;;;8.47;2.87;;;;;;;8.55;100.00;100913.13;5010499;28;20456;-79
2024/02/16 00:44:57;;;;;;;8.03;3.03;;;;;;;9.12;100.00;101029.38;4994247;28;20980;-80
2024/02/16 00:47:31;;;;;;;7.87;2.20;;;;;;;9.37;100.00;101037.09;5013554;28;21197;-80
2024/02/16 00:50:09;;;;;;;7.50;2.57;;;;;;;8.34;100.00;100888.94;5010968;28;20461;-78
2024/02/16 00:52:43;;;;;;;6.53;2.63;;;;;;;8.26;100.00;100910.38;5016091;28;20453;-79
2024/02/16 00:55:24;;;;;;;;;;;;;;;;;;;;;
2024/02/16 00:57:54;;;;;;;10.60;3.40;;;;;;;8.94;100.00;100997.63;5011879;28;20988;-79
2024/02/16 01:00:27;;;;;;;10.50;3.40;;;;;;;8.40;100.00;100876.72;5008970;28;20466;-79
2024/02/16 01:03:04;;;;;;;11.03;2.90;;;;;;;8.25;100.00;100856.13;4990676;28;20960;-79
2024/02/16 01:05:42;;;;;;;;;;;;;;;;;;;;;
2024/02/16 01:08:17;;;;;;;7.83;2.77;;;;;;;8.80;100.00;100955.66;5009073;28;20428;-79
2024/02/16 01:10:52;;;;;;;7.03;3.23;;;;;;;9.78;100.00;101117.78;5014138;28;20458;-79
2024/02/16 01:13:33;;;;;;;8.23;2.60;;;;;;;9.64;100.00;101116.78;5008787;28;20441;-80
2024/02/16 01:16:12;;;;;;;;;;;;;;;;;;;;;
2024/02/16 01:18:43;;;;;;;8.17;2.80;;;;;;;9.33;100.00;101050.03;5012006;28;20833;-78
2024/02/16 01:21:20;;;;;;;7.10;2.70;;;;;;;8.46;100.00;100921.41;5013878;28;20459;-81
2024/02/16 01:24:00;;;;;;;;;;;;;;;;;;;;;
2024/02/16 01:26:33;;;;;;;8.00;3.10;;;;;;;9.58;100.00;101087.22;5011683;28;20434;-78
2024/02/16 01:29:06;;;;;;;7.30;2.70;;;;;;;9.25;100.00;101026.84;5004368;28;20459;-80
2024/02/16 01:31:41;;;;;;;10.50;3.27;;;;;;;8.15;100.00;100842.19;5012377;28;20436;-81
2024/02/16 01:34:15;;;;;;;10.57;2.77;;;;;;;8.96;100.00;100976.03;4992909;28;20577;-79
2024/02/16 01:36:46;;;;;;;6.60;2.60;;;;;;;9.02;100.00;101008.22;4990568;28;20513;-79
2024/02/16 01:39:16;;;;;;;8.50;2.60;;;;;;;10.51;100.00;101276.88;4992794;28;20527;-78
2024/02/16 01:41:53;;;;;;;7.37;2.50;;;;;;;7.54;100.00;100738.13;4997695;28;20450;-80
2024/02/16 01:44:33;;;;;;;;;;;;;;;;;;;;;
2024/02/16 01:47:09;;;;;;;8.50;2.40;;;;;;;9.55;100.00;101069.69;5013305;28;20434;-79
2024/02/16 01:49:45;;;;;;;8.67;2.40;;;;;;;9.49;100.00;101054.38;4994793;28;20470;-78
2024/02/16 01:52:24;;;;;;;;;;;;;;;;;;;;;
2024/02/16 01:55:12;;;;;;;;;;;;;;;;;;;;;
2024/02/16 01:57:51;;;;;;;7.03;2.07;;;;;;;8.76;100.00;100957.00;5013403;28;20459;-78
2024/02/16 02:00:29;;;;;;;;;;;;;;;;;;;;;
2024/02/16 02:03:10;;;;;;;;;;;;;;;;;;;;;
2024/02/16 02:05:50;;;;;;;5.80;2.10;;;;;;;8.36;100.00;100889.56;5008970;28;20439;-77
2024/02/16 02:08:26;;;;;;;6.43;2.30;;;;;;;8.97;100.00;100962.47;4994118;28;20495;-78
2024/02/16 02:11:03;;;;;;;9.90;2.47;;;;;;;8.28;100.00;100828.19;4985074;28;21313;-79
2024/02/16 02:13:47;;;;;;;;;;;;;;;;;;;;;
2024/02/16 02:16:26;;;;;;;;;;;;;;;;;;;;;
2024/02/16 02:19:07;;;;;;;;;;;;;;;;;;;;;
2024/02/16 02:21:43;;;;;;;7.97;2.37;;;;;;;7.37;100.00;100693.94;5011810;28;20454;-77
2024/02/16 02:24:16;;;;;;;5.77;2.20;;;;;;;8.31;100.00;100839.34;5018506;28;20970;-77
2024/02/16 02:26:54;;;;;;;7.60;2.23;;;;;;;8.24;100.00;100854.44;5009986;28;20507;-81
2024/02/16 02:29:24;;;;;;;8.10;2.00;;;;;;;8.09;100.00;100784.97;4996431;28;20466;-79
2024/02/16 02:32:00;;;;;;;8.43;2.10;;;;;;;7.75;100.00;100764.13;5015170;28;20776;-79
2024/02/16 02:34:36;;;;;;;7.53;2.47;;;;;;;8.70;100.00;100890.91;5017189;28;20446;-80
2024/02/16 02:37:09;;;;;;;7.57;2.20;;;;;;;9.31;100.00;101027.13;5012536;28;20448;-78
2024/02/16 02:39:37;;;;;;;7.50;2.30;;;;;;;8.90;100.00;100920.59;4988462;28;20570;-77
2024/02/16 02:42:10;;;;;;;7.43;2.00;;;;;;;7.85;100.00;100731.81;5013223;28;20442;-79
2024/02/16 02:44:51;;;;;;;;;;;;;;;;;;;;;
2024/02/16 02:47:24;;;;;;;9.67;2.57;;;;;;;8.76;100.00;100906.19;5015796;28;20869;-80
2024/02/16 02:50:04;;;;;;;;;;;;;;;;;;;;;
2024/02/16 02:52:37;;;;;;;7.30;2.60;;;;;;;8.70;100.00;100851.63;5013626;28;20826;-78
2024/02/16 02:55:19;;;;;;;;;;;;;;;;;;;;;
2024/02/16 02:57:58;;;;;;;;;;;;;;;;;;;;;
2024/02/16 03:00:28;;;;;;;7.00;2.30;;;;;;;9.32;100.00;100986.81;5008957;28;20485;-78
2024/02/16 03:03:04;;;;;;;7.30;2.60;;;;;;;8.72;100.00;100896.91;4997701;28;21126;-79
2024/02/16 03:05:34;;;;;;;7.50;2.40;;;;;;;10.28;100.00;101159.00;5012873;28;20450;-77
2024/02/16 03:08:10;;;;;;;6.47;2.10;;;;;;;7.70;100.00;100710.47;5014022;28;20442;-81
2024/02/16 03:10:44;;;;;;;8.40;2.00;;;;;;;8.40;100.00;100805.38;4997224;28;21053;-77
2024/02/16 03:13:14;;;;;;;8.90;2.33;;;;;;;8.46;100.00;100844.72;5015440;28;20447;-78
2024/02/16 03:15:43;;;;;;;6.73;2.27;;;;;;;8.69;100.00;100889.25;5011349;28;20492;-77
2024/02/16 03:18:24;;;;;;;;;;;;;;;;;;;;;
2024/02/16 03:20:58;;;;;;;8.73;2.33;;;;;;;9.35;100.00;100981.06;5018815;28;20980;-77
2024/02/16 03:23:39;;;;;;;7.93;2.60;;;;;;;8.27;100.00;100789.94;5014029;28;20473;-79
2024/02/16 03:26:19;;;;;;;9.10;2.40;;;;;;;7.53;100.00;100669.75;4996457;28;20466;-79
2024/02/16 03:28:58;;;;;;;;;;;;;;;;;;;;;
2024/02/16 03:31:40;;;;;;;8.87;2.50;;;;;;;8.10;100.00;100800.00;5011143;28;20465;-78
2024/02/16 03:34:16;;;;;;;6.60;2.30;;;;;;;8.34;100.00;100812.25;4987217;28;20482;-76
2024/02/16 03:36:58;;;;;;;;;;;;;;;;;;;;;
2024/02/16 03:39:34;;;;;;;7.20;2.80;;;;;;;9.23;100.00;100959.31;5010147;28;20621;-77
2024/02/16 03:42:05;;;;;;;7.13;2.47;;;;;;;8.96;100.00;100926.00;5009548;28;20458;-77
2024/02/16 03:44:41;;;;;;;6.80;2.17;;;;;;;9.12;100.00;100937.56;5008479;28;20442;-77
2024/02/16 03:47:19;;;;;;;;;;;;;;;;;;;;;
2024/02/16 03:49:53;;;;;;;7.37;2.33;;;;;;;7.46;100.00;100660.81;5006911;28;20460;-78
2024/02/16 03:52:34;;;;;;;;;;;;;;;;;;;;;
2024/02/16 03:55:08;;;;;;;7.40;2.93;;;;;;;8.67;100.00;100924.19;5013116;28;20509;-78
2024/02/16 03:57:42;;;;;;;7.80;2.77;;;;;;;7.62;100.00;100682.00;5019152;28;21693;-78
2024/02/16 04:00:20;;;;;;;7.10;2.37;;;;;;;7.70;100.00;100689.09;5012724;28;20466;-77
2024/02/16 04:02:53;;;;;;;6.13;2.23;;;;;;;8.67;100.00;100856.50;5015071;28;20923;-79
2024/02/16 04:05:34;;;;;;;;;;;;;;;;;;;;;
2024/02/16 04:08:13;;;;;;;;;;;;;;;;;;;;;
2024/02/16 04:10:55;;;;;;;7.40;2.80;;;;;;;8.17;100.00;100743.97;5012112;28;20459;-77
2024/02/16 04:13:36;;;;;;;;;;;;;;;;;;;;;
2024/02/16 04:16:16;;;;;;;6.70;2.27;;;;;;;7.64;100.00;100655.13;5008484;28;20441;-77
2024/02/16 04:18:55;;;;;;;;;;;;;;;;;;;;;
2024/02/16 04:21:33;;;;;;;;;;;;;;;;;;;;;
2024/02/16 04:24:07;;;;;;;7.37;2.50;;;;;;;7.87;100.00;100711.94;5010101;28;20453;-79
2024/02/16 04:26:48;;;;;;;;;;;;;;;;;;;;;
2024/02/16 04:29:27;;;;;;;8.40;3.00;;;;;;;9.25;100.00;100921.63;5013062;28;20458;-78
2024/02/16 04:32:07;;;;;;;;;;;;;;;;;;;;;
2024/02/16 04:34:40;;;;;;;9.13;3.40;;;;;;;9.09;100.00;100944.09;5009698;28;20441;-79
2024/02/16 04:37:18;;;;;;;9.60;2.50;;;;;;;8.25;100.00;100780.47;5009017;28;20443;-77
2024/02/16 04:39:59;;;;;;;;;;;;;;;;;;;;;
2024/02/16 04:42:40;;;;;;;;;;;;;;;;;;;;;
2024/02/16 04:45:31;;;;;;;;;;;;;;;;;;;;;
2024/02/16 04:48:08;;;;;;;7.30;2.40;;;;;;;9.29;100.00;100906.88;5007058;28;20803;-79
2024/02/16 04:50:48;;;;;;;7.50;2.43;;;;;;;7.46;100.00;100636.78;5010597;28;20470;-78
2024/02/16 04:53:19;;;;;;;6.60;2.70;;;;;;;7.93;100.00;100710.38;5006753;28;20944;-77
2024/02/16 04:56:06;;;;;;;;;;;;;;;;;;;;;
2024/02/16 04:58:47;;;;;;;;;;;;;;;;;;;;;
2024/02/16 05:01:31;;;;;;;;;;;;;;;;;;;;;
2024/02/16 05:04:09;;;;;;;;;;;;;;;;;;;;;
2024/02/16 05:06:52;;;;;;;9.03;2.87;;;;;;;8.37;100.00;100752.25;5006142;28;20435;-80
2024/02/16 05:09:32;;;;;;;;;;;;;;;;;;;;;
2024/02/16 05:12:11;;;;;;;7.10;2.50;;;;;;;9.27;100.00;100882.97;5011162;28;20953;-78
2024/02/16 05:14:44;;;;;;;6.40;2.40;;;;;;;8.06;100.00;100699.03;4992128;28;20435;-77
2024/02/16 05:17:23;;;;;;;7.10;2.57;;;;;;;7.54;100.00;100612.69;5006795;28;20517;-78
2024/02/16 05:19:57;;;;;;;9.63;2.90;;;;;;;9.59;100.00;100965.69;5011255;28;20474;-77
2024/02/16 05:22:32;;;;;;;7.03;2.37;;;;;;;8.28;100.00;100740.84;4988181;28;20450;-81
2024/02/16 05:25:08;;;;;;;6.40;2.63;;;;;;;7.76;100.00;100648.31;5009097;28;20477;-79
2024/02/16 05:27:37;;;;;;;7.20;2.47;;;;;;;8.49;100.00;100760.66;5011090;28;20441;-78
2024/02/16 05:30:14;;;;;;;10.43;3.10;;;;;;;9.33;100.00;100901.97;5014550;28;20464;-77
2024/02/16 05:32:52;;;;;;;;;;;;;;;;;;;;;
2024/02/16 05:35:27;;;;;;;8.13;2.70;;;;;;;8.72;100.00;100832.72;5013177;28;20431;-78
2024/02/16 05:38:00;;;;;;;7.10;2.67;;;;;;;8.92;100.00;100873.91;4989929;28;20616;-81
2024/02/16 05:40:41;;;;;;;;;;;;;;;;;;;;;
2024/02/16 05:43:22;;;;;;;;;;;;;;;;;;;;;
2024/02/16 05:46:01;;;;;;;;;;;;;;;;;;;;;
2024/02/16 05:48:42;;;;;;;8.53;3.00;;;;;;;9.26;100.00;100884.00;5008936;28;20436;-78
2024/02/16 05:51:16;;;;;;;7.97;3.47;;;;;;;9.23;100.00;100900.44;4993632;28;20462;-77
2024/02/16 05:53:47;;;;;;;9.10;2.80;;;;;;;8.48;100.00;100783.06;4995854;28;20446;-78
2024/02/16 05:56:25;;;;;;;;;;;;;;;;;;;;;
2024/02/16 05:59:04;;;;;;;;;;;;;;;;;;;;;
2024/02/16 06:01:34;;;;;;;6.90;2.70;;;;;;;8.21;100.00;100720.38;5011218;28;20438;-77
2024/02/16 06:04:09;;;;;;;9.10;3.00;;;;;;;7.83;100.00;100624.38;5010306;28;20945;-78
2024/02/16 06:06:46;;;;;;;6.40;2.53;;;;;;;8.29;100.00;100747.00;4994582;28;20835;-78
2024/02/16 06:09:21;;;;;;;7.87;3.17;;;;;;;9.30;100.00;100865.69;4988398;28;20840;-78
2024/02/16 06:11:55;;;;;;;6.90;2.60;;;;;;;9.39;100.00;100912.75;4995140;28;21108;-80
2024/02/16 06:14:31;;;;;;;7.70;2.93;;;;;;;7.84;100.00;100618.84;4986767;28;21088;-79
2024/02/16 06:17:12;;;;;;;6.07;2.53;;;;;;;8.27;100.00;100700.94;5009118;28;20473;-79
2024/02/16 06:19:52;;;;;;;9.17;2.50;;;;;;;8.20;100.00;100718.75;4995745;28;20458;-77
2024/02/16 06:22:30;;;;;;;13.50;3.17;;;;;;;8.16;100.00;100728.97;5009174;28;21012;-81
2024/02/16 06:25:18;;;;;;;7.80;3.20;;;;;;;8.41;100.00;100777.63;4999160;28;20439;-79
2024/02/16 06:27:57;;;;;;;;;;;;;;;;;;;;;
2024/02/16 06:30:36;;;;;;;7.43;2.80;;;;;;;9.40;100.00;100873.41;5019555;28;20438;-78
2024/02/16 06:33:14;;;;;;;9.00;2.83;;;;;;;8.55;100.00;100782.13;4992157;28;20956;-79
2024/02/16 06:35:56;;;;;;;;;;;;;;;;;;;;;
2024/02/16 06:38:32;;;;;;;8.57;2.90;;;;;;;7.43;100.00;100560.63;5013223;28;20469;-79
2024/02/16 06:41:11;;;;;;;7.30;3.30;;;;;;;7.41;100.00;100561.81;5016504;28;20905;-79
2024/02/16 06:43:50;;;;;;;;;;;;;;;;;;;;;
2024/02/16 06:46:31;;;;;;;;;;;;;;;;;;;;;
2024/02/16 06:49:12;;;;;;;;;;;;;;;;;;;;;
2024/02/16 06:51:44;;;;;;;8.10;2.70;;;;;;;9.28;100.00;100865.88;5012782;28;20950;-78
2024/02/16 06:54:23;;;;;;;;;;;;;;;;;;;;;
2024/02/16 06:57:06;;;;;;;8.10;2.90;;;;;;;8.08;100.00;100689.81;5014029;28;20961;-80
2024/02/16 06:59:40;;;;;;;7.93;3.27;;;;;;;8.51;100.00;100791.53;5012859;28;20471;-79
2024/02/16 07:02:24;;;;;;;7.45;2.80;;;;;;;9.33;100.00;100859.13;4984997;28;20439;-79
2024/02/16 07:05:17;;;;;;;9.10;3.40;;;;;;;7.43;100.00;100562.44;4991876;28;20537;-77
2024/02/16 07:07:50;;;;;;;7.40;2.90;;;;;;;9.23;100.00;100879.03;4988555;28;20431;-80
2024/02/16 07:10:24;;;;;;;6.83;3.30;;;;;;;9.09;100.00;100847.78;4988921;28;20506;-78
2024/02/16 07:13:00;;;;;;;10.90;3.27;;;;;;;8.89;100.00;100842.19;5012239;28;20927;-78
2024/02/16 07:15:33;;;;;;;9.97;3.07;;;;;;;7.50;100.00;100584.72;5015712;28;20512;-78
2024/02/16 07:18:09;;;;;;;7.47;3.03;;;;;;;9.28;100.00;100879.25;5014485;28;20479;-80
2024/02/16 07:20:50;;;;;;;;;;;;;;;;;;;;;
2024/02/16 07:23:21;;;;;;;9.37;2.80;;;;;;;8.10;100.00;100695.81;5018205;28;20444;-80
2024/02/16 07:25:56;;;;;;;9.53;3.47;;;;;;;7.91;100.00;100637.63;5016401;28;20457;-78
2024/02/16 07:28:39;;;;;;;;;;;;;;;;;;;;;
2024/02/16 07:31:15;;;;;;;10.37;3.97;;;;;;;9.58;100.00;100892.56;5012510;28;20469;-78
2024/02/16 07:33:55;;;;;;;11.50;3.80;;;;;;;8.88;100.00;100783.50;4996679;28;20984;-78
2024/02/16 07:36:38;;;;;;;;;;;;;;;;;;;;;
2024/02/16 07:39:09;;;;;;;11.60;4.53;;;;;;;8.23;100.00;100705.00;5009798;28;20474;-79
2024/02/16 07:41:54;;;;;;;;;;;;;;;;;;;;;
2024/02/16 07:44:27;;;;;;;12.53;4.13;;;;;;;7.99;100.00;100642.84;5018968;28;20443;-78
2024/02/16 07:47:09;;;;;;;8.40;2.83;;;;;;;8.06;100.00;100685.66;4990541;28;20904;-78
2024/02/16 07:49:47;;;;;;;11.47;4.10;;;;;;;9.64;100.00;100909.72;4993267;28;20466;-80
2024/02/16 07:52:17;;;;;;;10.27;3.40;;;;;;;9.01;100.00;100831.84;5019273;28;20518;-79
2024/02/16 07:54:54;;;;;;;10.03;3.50;;;;;;;8.55;100.00;100775.94;5012376;28;20450;-79
2024/02/16 07:57:39;;;;;;;8.17;3.20;;;;;;;9.50;100.00;100898.03;5018847;28;20823;-79
2024/02/16 08:00:17;;;;;;;8.40;3.83;;;;;;;7.71;100.00;100621.34;5014880;28;20467;-78
2024/02/16 08:02:58;;;;;;;9.70;3.57;;;;;;;9.65;100.00;100914.03;4997451;28;20466;-78
2024/02/16 08:05:29;;;;;;;8.90;3.37;;;;;;;7.60;100.00;100638.63;5005970;28;20461;-78
2024/02/16 08:08:02;;;;;;;9.50;3.50;;;;;;;7.84;100.00;100626.84;5012097;28;20485;-78
2024/02/16 08:10:44;;;;;;;;;;;;;;;;;;;;;
2024/02/16 08:13:26;;;;;;;;;;;;;;;;;;;;;
2024/02/16 08:16:06;;;;;;;7.77;3.47;;;;;;;9.57;100.00;100892.75;5017531;28;20453;-79
2024/02/16 08:18:39;;;;;;;9.23;3.97;;;;;;;10.33;100.00;101011.81;4993416;28;20471;-78
2024/02/16 08:21:12;;;;;;;10.60;4.13;;;;;;;9.80;100.00;100976.41;5020642;28;20466;-80
2024/02/16 08:23:56;;;;;;;;;;;;;;;;;;;;;
2024/02/16 08:26:33;;;;;;;8.87;4.03;;;;;;;8.14;100.00;100673.03;5016468;28;20445;-80
2024/02/16 08:29:12;;;;;;;8.30;3.10;;;;;;;8.45;100.00;100759.38;5019449;28;20446;-77
2024/02/16 08:31:54;;;;;;;9.13;3.20;;;;;;;7.97;100.00;100642.22;5011619;28;20826;-78
2024/02/16 08:34:26;;;;;;;8.40;2.80;;;;;;;7.83;100.00;100614.50;5015071;28;20526;-80
2024/02/16 08:37:13;;;;;;;;;;;;;;;;;;;;;
2024/02/16 08:39:44;;;;;;;8.07;2.80;;;;;;;8.69;100.00;100755.56;5011190;28;20477;-78
2024/02/16 08:42:24;;;;;;;;;;;;;;;;;;;;;
2024/02/16 08:45:04;;;;;;;;;;;;;;;;;;;;;
2024/02/16 08:47:40;;;;;;;6.90;3.00;;;;;;;8.25;100.00;100687.78;5017336;28;20434;-76
2024/02/16 08:50:19;;;;;;;7.57;3.20;;;;;;;9.66;100.00;100897.81;4994090;28;20459;-79
2024/02/16 08:52:57;;;;;;;11.77;3.47;;;;;;;8.86;100.00;100772.19;5017393;28;20821;-80
2024/02/16 08:55:34;;;;;;;9.57;3.50;;;;;;;8.40;100.00;100751.09;4994169;28;20446;-78
2024/02/16 08:58:09;;;;;;;13.57;3.30;;;;;;;7.81;100.00;100595.19;5016523;28;20473;-80
2024/02/16 09:00:48;;;;;;;;;;;;;;;;;;;;;
2024/02/16 09:03:16;;;;;;;7.00;3.33;;;;;;;7.90;100.00;100631.47;5010328;28;20446;-78
2024/02/16 09:05:54;;;;;;;;;;;;;;;;;;;;;
2024/02/16 09:08:33;;;;;;;;;;;;;;;;;;;;;
2024/02/16 09:11:07;;;;;;;8.47;3.40;;;;;;;7.90;100.00;100625.28;5013759;28;20461;-78
2024/02/16 09:13:43;;;;;;;9.13;3.33;;;;;;;8.02;100.00;100615.78;5017550;28;20828;-78
2024/02/16 09:16:19;;;;;;;10.40;4.20;;;;;;;9.06;100.00;100818.72;5012508;28;20440;-78
2024/02/16 09:18:52;;;;;;;6.37;2.80;;;;;;;8.98;100.00;100766.16;5012945;28;20470;-79
2024/02/16 09:21:28;;;;;;;7.37;2.97;;;;;;;8.69;100.00;100753.69;4995532;28;20450;-79
2024/02/16 09:24:04;;;;;;;8.07;3.30;;;;;;;8.37;100.00;100670.22;5008068;28;20523;-79
2024/02/16 09:26:47;;;;;;;;;;;;;;;;;;;;;
2024/02/16 09:29:21;;;;;;;8.63;3.40;;;;;;;10.31;100.00;100991.59;5013695;28;20482;-80
2024/02/16 09:31:59;;;;;;;;;;;;;;;;;;;;;
2024/02/16 09:34:43;;;;;;;;;;;;;;;;;;;;;
2024/02/16 09:37:13;;;;;;;7.13;2.83;;;;;;;9.09;100.00;100788.09;5013696;28;20963;-79
2024/02/16 09:39:41;;;;;;;6.73;2.70;;;;;;;8.92;100.00;100747.38;4995922;28;20978;-78
2024/02/16 09:42:17;;;;;;;8.67;3.40;;;;;;;8.08;100.00;100603.50;5016469;28;20540;-79
2024/02/16 09:44:50;;;;;;;8.20;2.80;;;;;;;8.49;100.00;100653.72;5011211;28;20859;-77
2024/02/16 09:47:34;;;;;;;;;;;;;;;;;;;;;
2024/02/16 09:50:10;;;;;;;7.37;2.93;;;;;;;9.47;100.00;100847.56;5013319;28;20457;-81
2024/02/16 09:52:43;;;;;;;6.80;2.70;;;;;;;8.60;100.00;100666.59;4996749;28;20448;-78
2024/02/16 09:55:25;;;;;;;8.10;3.00;;;;;;;10.53;100.00;101008.44;5010326;28;20489;-78
2024/02/16 09:58:18;;;;;;;;;;;;;;;;;;;;;
2024/02/16 10:00:51;;;;;;;10.07;3.43;;;;;;;8.89;100.00;100707.63;5011831;28;21012;-79
2024/02/16 10:03:44;;;;;;;;;;;;;;;;;;;;;
2024/02/16 10:06:25;;;;;;;;;;;;;;;;;;;;;
2024/02/16 10:09:04;;;;;;;;;;;;;;;;;;;;;
2024/02/16 10:11:46;;;;;;;8.17;3.17;;;;;;;8.60;100.00;100651.38;5010890;28;20431;-78
2024/02/16 10:14:19;;;;;;;7.10;3.43;;;;;;;9.84;100.00;100870.56;5008883;28;20455;-79
2024/02/16 10:17:10;;;;;;;8.93;3.70;;;;;;;9.26;100.00;100782.28;4994162;28;20541;-79
2024/02/16 10:19:47;;;;;;;10.03;3.10;;;;;;;10.73;100.00;100981.78;4995747;28;21017;-77
2024/02/16 10:22:22;;;;;;;7.57;3.20;;;;;;;8.96;100.00;100701.28;4992396;28;20665;-78
2024/02/16 10:24:59;;;;;;;8.97;3.70;;;;;;;10.40;100.00;100915.34;5010631;28;20821;-78
2024/02/16 10:27:37;;;;;;;;;;;;;;;;;;;;;
2024/02/16 10:30:09;;;;;;;6.97;3.40;;;;;;;10.93;100.00;100992.63;5009451;28;20486;-78
2024/02/16 10:32:51;;;;;;;15.17;3.50;;;;;;;9.28;100.00;100713.31;5011710;28;20533;-77
2024/02/16 10:35:23;;;;;;;9.90;3.97;;;;;;;9.52;100.00;100746.06;5008446;28;20438;-79
2024/02/16 10:38:02;;;;;;;12.87;3.60;;;;;;;9.41;100.00;100717.13;4991858;28;20510;-81
2024/02/16 10:40:41;;;;;;;10.67;4.30;;;;;;;10.78;100.00;100960.56;5010863;28;20458;-79
2024/02/16 10:43:19;;;;;;;;;;;;;;;;;;;;;
2024/02/16 10:45:56;;;;;;;8.53;3.60;;;;;;;9.78;100.00;100766.00;5020008;28;20434;-79
2024/02/16 10:48:24;;;;;;;8.37;3.50;;;;;;;11.24;100.00;101038.66;5014093;28;20446;-79
2024/02/16 10:50:54;;;;;;;8.57;3.30;;;;;;;9.53;100.00;100737.00;5021322;28;20466;-79
2024/02/16 10:53:31;;;;;;;9.80;4.43;;;;;;;9.85;100.00;100774.94;4991492;28;20455;-77
2024/02/16 10:56:09;;;;;;;11.40;4.00;;;;;;;10.38;100.00;100893.25;5015002;28;20443;-77
2024/02/16 10:58:40;;;;;;;34.13;15.10;;;;;;;10.83;100.00;100923.25;5011575;28;20470;-79
2024/02/16 11:01:22;;;;;;;7.07;3.60;;;;;;;10.29;100.00;100863.06;5013211;28;20486;-79
2024/02/16 11:04:11;;;;;;;42.50;18.60;;;;;;;11.90;100.00;101109.91;5009585;28;21532;-79
2024/02/16 11:07:01;;;;;;;11.57;4.70;;;;;;;11.58;100.00;101036.97;5013602;28;20437;-79
2024/02/16 11:09:38;;;;;;;10.37;3.67;;;;;;;11.72;100.00;101019.06;5019360;28;20492;-79
2024/02/16 11:12:18;;;;;;;11.23;4.53;;;;;;;10.12;100.00;100773.25;5015185;28;25317;-81
2024/02/16 11:14:56;;;;;;;8.37;3.77;;;;;;;11.63;100.00;101017.53;5000765;28;20878;-77
2024/02/16 11:17:33;;;;;;;9.10;4.20;;;;;;;10.72;100.00;100880.88;5011294;28;20440;-80
2024/02/16 11:20:05;;;;;;;14.10;5.13;;;;;;;10.02;100.00;100767.41;5020154;28;20488;-80
2024/02/16 11:22:47;;;;;;;10.30;4.50;;;;;;;10.43;100.00;100871.22;5018710;28;20990;-78
2024/02/16 11:25:15;;;;;;;11.63;4.93;;;;;;;10.29;100.00;100832.75;5018870;28;20602;-78
2024/02/16 11:27:46;;;;;;;14.40;4.50;;;;;;;11.60;100.00;101064.47;5018531;28;20481;-79
2024/02/16 11:30:19;;;;;;;10.47;4.63;;;;;;;10.63;100.00;100932.00;5014604;28;20463;-79
2024/02/16 11:32:49;;;;;;;9.57;4.87;;;;;;;11.45;100.00;101028.84;4990624;28;20447;-79
2024/02/16 11:35:25;;;;;;;7.40;4.03;;;;;;;10.01;100.00;100809.47;5015317;28;20450;-79
2024/02/16 11:38:00;;;;;;;9.87;4.70;;;;;;;9.81;100.00;100814.69;5018265;28;20440;-79
2024/02/16 11:40:42;;;;;;;;;;;;;;;;;;;;;
2024/02/16 11:43:21;;;;;;;13.67;6.00;;;;;;;9.90;100.00;100807.34;5018660;28;20443;-78
2024/02/16 11:45:55;;;;;;;15.00;8.07;;;;;;;10.51;100.00;100913.97;4997050;28;21028;-77
2024/02/16 11:48:31;;;;;;;16.30;6.87;;;;;;;10.90;100.00;100975.06;5012041;28;20578;-77
2024/02/16 11:51:04;;;;;;;11.80;6.87;;;;;;;11.43;100.00;101066.66;5016505;28;20490;-79
2024/02/16 11:53:45;;;;;;;;;;;;;;;;;;;;;
2024/02/16 11:56:24;;;;;;;13.90;6.80;;;;;;;11.22;100.00;101034.50;5015260;28;20453;-76
2024/02/16 11:59:04;;;;;;;11.40;6.37;;;;;;;10.14;100.00;100878.41;5016267;28;20573;-79
2024/02/16 12:01:38;;;;;;;12.57;6.60;;;;;;;10.71;100.00;100967.75;5000258;28;20445;-78
2024/02/16 12:04:13;;;;;;;13.17;7.30;;;;;;;11.24;100.00;101068.19;5015585;28;20585;-77
2024/02/16 12:06:51;;;;;;;13.70;8.60;;;;;;;11.01;100.00;101057.72;4995477;28;20831;-81
2024/02/16 12:09:25;;;;;;;16.40;8.87;;;;;;;9.47;100.00;100818.91;4996481;28;20481;-78
2024/02/16 12:11:59;;;;;;;12.40;8.33;;;;;;;9.34;100.00;100820.63;4995270;28;20519;-77
2024/02/16 12:14:34;;;;;;;17.23;8.87;;;;;;;10.76;100.00;101120.91;5011929;28;20530;-77
2024/02/16 12:17:04;;;;;;;19.30;9.47;;;;;;;10.35;100.00;101100.91;5013075;28;20443;-77
2024/02/16 12:19:55;;;;;;;17.93;10.70;;;;;;;10.20;100.00;101078.66;5012303;28;21012;-78
2024/02/16 12:22:36;;;;;;;;;;;;;;;;;;;;;
2024/02/16 12:25:08;;;;;;;15.33;9.87;;;;;;;8.47;100.00;100827.66;5014905;28;20450;-77
2024/02/16 12:27:41;;;;;;;15.63;9.63;;;;;;;9.28;100.00;100983.66;5015930;28;20443;-80
2024/02/16 12:30:15;;;;;;;16.37;8.70;;;;;;;8.85;100.00;100939.03;5010696;28;20550;-78
2024/02/16 12:32:54;;;;;;;;;;;;;;;;;;;;;
2024/02/16 12:35:38;;;;;;;;;;;;;;;;;;;;;
2024/02/16 12:38:19;;;;;;;;;;;;;;;;;;;;;
2024/02/16 12:41:03;;;;;;;14.63;6.80;;;;;;;10.06;100.00;101133.16;5010289;28;20470;-78
2024/02/16 12:43:44;;;;;;;16.63;7.97;;;;;;;9.89;100.00;101124.50;5008996;28;20441;-81
2024/02/16 12:46:17;;;;;;;14.77;7.00;;;;;;;8.18;100.00;100857.84;5015934;28;21064;-79
2024/02/16 12:48:53;;;;;;;15.33;6.83;;;;;;;9.99;100.00;101146.47;5014150;28;20436;-77
2024/02/16 12:51:23;;;;;;;11.17;6.80;;;;;;;8.92;100.00;101017.53;5012443;28;20439;-78
2024/02/16 12:54:04;;;;;;;;;;;;;;;;;;;;;
2024/02/16 12:56:40;;;;;;;13.37;6.83;;;;;;;10.03;100.00;101176.41;5010559;28;20449;-78
2024/02/16 12:59:10;;;;;;;10.90;5.90;;;;;;;9.14;100.00;101040.72;5017263;28;20547;-77
2024/02/16 13:01:41;;;;;;;12.00;6.43;;;;;;;9.25;100.00;101072.34;4994658;28;20958;-80
2024/02/16 13:04:14;;;;;;;10.50;5.60;;;;;;;9.92;100.00;101154.44;5005526;28;20427;-78
2024/02/16 13:06:44;;;;;;;10.93;5.87;;;;;;;9.94;100.00;101168.47;5009263;28;20450;-80
2024/02/16 13:09:23;;;;;;;;;;;;;;;;;;;;;
2024/02/16 13:12:04;;;;;;;;;;;;;;;;;;;;;
2024/02/16 13:14:40;;;;;;;12.60;5.23;;;;;;;8.76;100.00;100999.81;5007218;28;20782;-76
2024/02/16 13:17:13;;;;;;;8.70;4.57;;;;;;;9.85;100.00;101185.66;5012594;28;20496;-78
2024/02/16 13:19:50;;;;;;;9.30;4.53;;;;;;;8.05;100.00;100921.78;4993654;28;20524;-76
2024/02/16 13:22:31;;;;;;;;;;;;;;;;;;;;;
2024/02/16 13:25:01;;;;;;;9.77;4.90;;;;;;;9.28;100.00;101144.25;5015337;28;20443;-80
2024/02/16 13:27:43;;;;;;;8.63;4.23;;;;;;;8.30;100.00;100946.41;4996433;28;20530;-79
2024/02/16 13:30:14;;;;;;;9.03;4.13;;;;;;;8.27;100.00;100987.69;5008179;28;20506;-80
2024/02/16 13:32:53;;;;;;;7.60;4.37;;;;;;;8.82;100.00;101068.63;4995485;28;20529;-77
2024/02/16 13:35:39;;;;;;;9.03;4.00;;;;;;;8.38;100.00;100997.13;4993921;28;20447;-77
2024/02/16 13:38:09;;;;;;;11.23;4.77;;;;;;;8.38;100.00;101051.44;5015701;28;20904;-77
2024/02/16 13:40:48;;;;;;;8.87;3.87;;;;;;;9.67;100.00;101244.13;4988556;28;20467;-77
2024/02/16 13:43:24;;;;;;;7.00;3.60;;;;;;;7.97;100.00;100976.09;4997965;28;20489;-77
2024/02/16 13:46:02;;;;;;;8.60;3.80;;;;;;;8.46;100.00;101069.28;5011841;28;20435;-77
2024/02/16 13:48:43;;;;;;;;;;;;;;;;;;;;;
2024/02/16 13:51:24;;;;;;;;;;;;;;;;;;;;;
2024/02/16 13:54:05;;;;;;;;;;;;;;;;;;;;;
2024/02/16 13:56:46;;;;;;;;;;;;;;;;;;;;;
2024/02/16 13:59:32;;;;;;;;;;;;;;;;;;;;;
2024/02/16 14:02:08;;;;;;;5.57;2.67;;;;;;;9.54;100.00;101335.78;5013755;28;20450;-78
2024/02/16 14:04:49;;;;;;;;;;;;;;;;;;;;;
2024/02/16 14:07:23;;;;;;;6.87;2.30;;;;;;;8.47;100.00;101258.06;5012619;28;20426;-78
2024/02/16 14:10:00;;;;;;;5.80;2.20;;;;;;;8.68;100.00;101294.91;4998116;28;21035;-77